sensor_id;sensor_type;location;lat;lon;timestamp;P1;durP1;ratioP1;P2;durP2;ratioP2
20181;SDS011;10250;50.756;6.172;2023-02-04T00:00:20;8.70;;;1.37;;
20181;SDS011;10250;50.756;6.172;2023-02-04T00:02:21;4.97;;;1.00;;
20181;SDS011;10250;50.756;6.172;2023-02-04T00:04:22;1.53;;;0.50;;
20181;SDS011;10250;50.756;6.172;2023-02-04T00:06:23;4.07;;;0.90;;
20181;SDS011;10250;50.756;6.172;2023-02-04T00:08:24;3.47;;;0.97;;
20181;SDS011;10250;50.756;6.172;2023-02-04T00:10:25;2.67;;;0.60;;
20181;SDS011;10250;50.756;6.172;2023-02-04T00:12:26;3.13;;;0.90;;
20181;SDS011;10250;50.756;6.172;2023-02-04T00:14:27;2.00;;;0.80;;
20181;SDS011;10250;50.756;6.172;2023-02-04T00:16:28;3.27;;;0.70;;
20181;SDS011;10250;50.756;6.172;2023-02-04T00:18:29;3.67;;;1.13;;
20181;SDS011;10250;50.756;6.172;2023-02-04T00:20:30;3.60;;;1.00;;
20181;SDS011;10250;50.756;6.172;2023-02-04T00:22:31;5.00;;;1.03;;
20181;SDS011;10250;50.756;6.172;2023-02-04T00:24:35;6.33;;;1.07;;
20181;SDS011;10250;50.756;6.172;2023-02-04T00:26:37;3.60;;;1.00;;
20181;SDS011;10250;50.756;6.172;2023-02-04T00:28:38;9.83;;;1.00;;
20181;SDS011;10250;50.756;6.172;2023-02-04T00:30:39;2.03;;;0.77;;
20181;SDS011;10250;50.756;6.172;2023-02-04T00:32:40;6.60;;;0.97;;
20181;SDS011;10250;50.756;6.172;2023-02-04T00:34:41;5.13;;;1.13;;
20181;SDS011;10250;50.756;6.172;2023-02-04T00:36:42;2.13;;;0.70;;
20181;SDS011;10250;50.756;6.172;2023-02-04T00:38:43;4.67;;;1.03;;
20181;SDS011;10250;50.756;6.172;2023-02-04T00:40:44;2.93;;;0.90;;
20181;SDS011;10250;50.756;6.172;2023-02-04T00:44:59;2.77;;;0.80;;
20181;SDS011;10250;50.756;6.172;2023-02-04T00:46:59;3.40;;;0.87;;
20181;SDS011;10250;50.756;6.172;2023-02-04T00:49:00;3.03;;;0.80;;
20181;SDS011;10250;50.756;6.172;2023-02-04T00:51:02;3.07;;;0.97;;
20181;SDS011;10250;50.756;6.172;2023-02-04T00:53:03;2.27;;;0.80;;
20181;SDS011;10250;50.756;6.172;2023-02-04T00:55:04;6.37;;;1.30;;
20181;SDS011;10250;50.756;6.172;2023-02-04T00:57:06;5.33;;;1.13;;
20181;SDS011;10250;50.756;6.172;2023-02-04T00:59:07;6.63;;;0.97;;
20181;SDS011;10250;50.756;6.172;2023-02-04T01:01:08;3.07;;;0.67;;
20181;SDS011;10250;50.756;6.172;2023-02-04T01:03:09;6.90;;;1.40;;
20181;SDS011;10250;50.756;6.172;2023-02-04T01:05:11;6.30;;;1.10;;
20181;SDS011;10250;50.756;6.172;2023-02-04T01:07:12;4.23;;;1.07;;
20181;SDS011;10250;50.756;6.172;2023-02-04T01:09:13;4.87;;;0.93;;
20181;SDS011;10250;50.756;6.172;2023-02-04T01:11:14;4.20;;;1.10;;
20181;SDS011;10250;50.756;6.172;2023-02-04T01:13:15;3.93;;;0.73;;
20181;SDS011;10250;50.756;6.172;2023-02-04T01:15:16;4.37;;;0.77;;
20181;SDS011;10250;50.756;6.172;2023-02-04T01:17:17;5.77;;;0.93;;
20181;SDS011;10250;50.756;6.172;2023-02-04T01:19:18;2.37;;;0.90;;
20181;SDS011;10250;50.756;6.172;2023-02-04T01:21:23;3.10;;;0.50;;
20181;SDS011;10250;50.756;6.172;2023-02-04T01:23:24;3.43;;;0.83;;
20181;SDS011;10250;50.756;6.172;2023-02-04T01:25:25;2.80;;;0.73;;
20181;SDS011;10250;50.756;6.172;2023-02-04T01:27:27;2.37;;;0.63;;
20181;SDS011;10250;50.756;6.172;2023-02-04T01:29:28;3.00;;;0.67;;
20181;SDS011;10250;50.756;6.172;2023-02-04T01:31:29;4.30;;;0.67;;
20181;SDS011;10250;50.756;6.172;2023-02-04T01:33:31;3.90;;;0.87;;
20181;SDS011;10250;50.756;6.172;2023-02-04T01:35:32;2.73;;;0.70;;
20181;SDS011;10250;50.756;6.172;2023-02-04T01:37:33;3.90;;;1.03;;
20181;SDS011;10250;50.756;6.172;2023-02-04T01:39:34;4.93;;;0.73;;
20181;SDS011;10250;50.756;6.172;2023-02-04T01:41:35;2.83;;;0.73;;
20181;SDS011;10250;50.756;6.172;2023-02-04T01:43:36;2.27;;;0.60;;
20181;SDS011;10250;50.756;6.172;2023-02-04T01:45:37;3.07;;;0.70;;
20181;SDS011;10250;50.756;6.172;2023-02-04T01:47:38;2.47;;;0.70;;
20181;SDS011;10250;50.756;6.172;2023-02-04T01:49:39;6.77;;;1.20;;
20181;SDS011;10250;50.756;6.172;2023-02-04T01:51:40;2.67;;;0.90;;
20181;SDS011;10250;50.756;6.172;2023-02-04T01:53:42;1.33;;;0.53;;
20181;SDS011;10250;50.756;6.172;2023-02-04T01:55:43;2.10;;;0.80;;
20181;SDS011;10250;50.756;6.172;2023-02-04T01:57:44;8.10;;;0.93;;
20181;SDS011;10250;50.756;6.172;2023-02-04T01:59:46;4.37;;;0.63;;
20181;SDS011;10250;50.756;6.172;2023-02-04T02:01:50;2.27;;;0.67;;
20181;SDS011;10250;50.756;6.172;2023-02-04T02:03:51;6.20;;;1.17;;
20181;SDS011;10250;50.756;6.172;2023-02-04T02:05:52;4.70;;;0.80;;
20181;SDS011;10250;50.756;6.172;2023-02-04T02:07:55;4.87;;;0.70;;
20181;SDS011;10250;50.756;6.172;2023-02-04T02:09:56;3.57;;;0.90;;
20181;SDS011;10250;50.756;6.172;2023-02-04T02:11:57;2.73;;;0.73;;
20181;SDS011;10250;50.756;6.172;2023-02-04T02:14:00;3.40;;;0.80;;
20181;SDS011;10250;50.756;6.172;2023-02-04T02:16:01;5.63;;;0.80;;
20181;SDS011;10250;50.756;6.172;2023-02-04T02:18:02;5.30;;;0.93;;
20181;SDS011;10250;50.756;6.172;2023-02-04T02:20:07;2.57;;;0.70;;
20181;SDS011;10250;50.756;6.172;2023-02-04T02:24:29;3.43;;;1.07;;
20181;SDS011;10250;50.756;6.172;2023-02-04T02:26:30;5.50;;;1.07;;
20181;SDS011;10250;50.756;6.172;2023-02-04T02:28:32;5.63;;;1.20;;
20181;SDS011;10250;50.756;6.172;2023-02-04T02:30:32;7.27;;;1.13;;
20181;SDS011;10250;50.756;6.172;2023-02-04T02:32:33;5.63;;;1.30;;
20181;SDS011;10250;50.756;6.172;2023-02-04T02:34:35;1.13;;;0.70;;
20181;SDS011;10250;50.756;6.172;2023-02-04T02:36:36;3.67;;;0.80;;
20181;SDS011;10250;50.756;6.172;2023-02-04T02:38:38;5.80;;;0.93;;
20181;SDS011;10250;50.756;6.172;2023-02-04T02:40:39;9.13;;;1.13;;
20181;SDS011;10250;50.756;6.172;2023-02-04T02:42:41;4.07;;;0.93;;
20181;SDS011;10250;50.756;6.172;2023-02-04T02:44:43;6.93;;;0.97;;
20181;SDS011;10250;50.756;6.172;2023-02-04T02:46:45;5.27;;;0.80;;
20181;SDS011;10250;50.756;6.172;2023-02-04T02:48:46;5.70;;;1.23;;
20181;SDS011;10250;50.756;6.172;2023-02-04T02:50:47;3.07;;;0.90;;
20181;SDS011;10250;50.756;6.172;2023-02-04T02:52:48;2.20;;;0.70;;
20181;SDS011;10250;50.756;6.172;2023-02-04T02:54:49;2.13;;;0.50;;
20181;SDS011;10250;50.756;6.172;2023-02-04T02:56:50;2.70;;;0.70;;
20181;SDS011;10250;50.756;6.172;2023-02-04T02:58:51;5.07;;;0.67;;
20181;SDS011;10250;50.756;6.172;2023-02-04T03:00:53;3.93;;;0.80;;
20181;SDS011;10250;50.756;6.172;2023-02-04T03:04:58;4.53;;;1.17;;
20181;SDS011;10250;50.756;6.172;2023-02-04T03:07:00;6.33;;;1.10;;
20181;SDS011;10250;50.756;6.172;2023-02-04T03:09:01;7.87;;;1.40;;
20181;SDS011;10250;50.756;6.172;2023-02-04T03:11:02;3.00;;;0.90;;
20181;SDS011;10250;50.756;6.172;2023-02-04T03:13:03;5.20;;;0.97;;
20181;SDS011;10250;50.756;6.172;2023-02-04T03:15:05;5.37;;;1.00;;
20181;SDS011;10250;50.756;6.172;2023-02-04T03:17:06;4.67;;;1.07;;
20181;SDS011;10250;50.756;6.172;2023-02-04T03:19:08;3.87;;;0.80;;
20181;SDS011;10250;50.756;6.172;2023-02-04T03:21:09;3.30;;;1.00;;
20181;SDS011;10250;50.756;6.172;2023-02-04T03:23:10;4.73;;;1.33;;
20181;SDS011;10250;50.756;6.172;2023-02-04T03:25:11;5.63;;;1.10;;
20181;SDS011;10250;50.756;6.172;2023-02-04T03:27:13;7.60;;;1.20;;
20181;SDS011;10250;50.756;6.172;2023-02-04T03:29:14;6.70;;;1.23;;
20181;SDS011;10250;50.756;6.172;2023-02-04T03:31:15;7.60;;;1.40;;
20181;SDS011;10250;50.756;6.172;2023-02-04T03:33:17;1.13;;;0.50;;
20181;SDS011;10250;50.756;6.172;2023-02-04T03:35:18;1.37;;;0.60;;
20181;SDS011;10250;50.756;6.172;2023-02-04T03:37:19;3.00;;;0.77;;
20181;SDS011;10250;50.756;6.172;2023-02-04T03:39:20;5.00;;;1.07;;
20181;SDS011;10250;50.756;6.172;2023-02-04T03:41:21;10.63;;;1.70;;
20181;SDS011;10250;50.756;6.172;2023-02-04T03:43:22;5.40;;;0.80;;
20181;SDS011;10250;50.756;6.172;2023-02-04T03:45:23;8.17;;;1.13;;
20181;SDS011;10250;50.756;6.172;2023-02-04T03:47:24;4.67;;;1.33;;
20181;SDS011;10250;50.756;6.172;2023-02-04T03:49:25;3.87;;;0.90;;
20181;SDS011;10250;50.756;6.172;2023-02-04T03:51:27;2.73;;;0.70;;
20181;SDS011;10250;50.756;6.172;2023-02-04T03:53:28;2.80;;;0.90;;
20181;SDS011;10250;50.756;6.172;2023-02-04T03:55:29;6.83;;;0.90;;
20181;SDS011;10250;50.756;6.172;2023-02-04T03:57:31;1.03;;;0.73;;
20181;SDS011;10250;50.756;6.172;2023-02-04T03:59:32;5.03;;;0.90;;
20181;SDS011;10250;50.756;6.172;2023-02-04T04:01:33;2.30;;;0.63;;
20181;SDS011;10250;50.756;6.172;2023-02-04T04:03:34;3.03;;;1.03;;
20181;SDS011;10250;50.756;6.172;2023-02-04T04:05:35;2.27;;;0.70;;
20181;SDS011;10250;50.756;6.172;2023-02-04T04:07:36;5.97;;;1.00;;
20181;SDS011;10250;50.756;6.172;2023-02-04T04:09:37;2.80;;;0.60;;
20181;SDS011;10250;50.756;6.172;2023-02-04T04:11:38;5.63;;;0.87;;
20181;SDS011;10250;50.756;6.172;2023-02-04T04:13:39;3.67;;;0.80;;
20181;SDS011;10250;50.756;6.172;2023-02-04T04:15:40;5.80;;;1.17;;
20181;SDS011;10250;50.756;6.172;2023-02-04T04:17:41;6.13;;;0.80;;
20181;SDS011;10250;50.756;6.172;2023-02-04T04:19:42;5.43;;;1.07;;
20181;SDS011;10250;50.756;6.172;2023-02-04T04:21:43;0.97;;;0.40;;
20181;SDS011;10250;50.756;6.172;2023-02-04T04:23:44;3.23;;;0.50;;
20181;SDS011;10250;50.756;6.172;2023-02-04T04:25:45;4.90;;;1.07;;
20181;SDS011;10250;50.756;6.172;2023-02-04T04:27:46;2.27;;;0.80;;
20181;SDS011;10250;50.756;6.172;2023-02-04T04:29:47;3.53;;;0.63;;
20181;SDS011;10250;50.756;6.172;2023-02-04T04:31:48;3.27;;;0.83;;
20181;SDS011;10250;50.756;6.172;2023-02-04T04:33:49;6.03;;;1.23;;
20181;SDS011;10250;50.756;6.172;2023-02-04T04:35:50;3.17;;;0.80;;
20181;SDS011;10250;50.756;6.172;2023-02-04T04:37:51;0.67;;;0.47;;
20181;SDS011;10250;50.756;6.172;2023-02-04T04:39:52;3.23;;;0.80;;
20181;SDS011;10250;50.756;6.172;2023-02-04T04:41:53;1.17;;;0.57;;
20181;SDS011;10250;50.756;6.172;2023-02-04T04:43:54;6.27;;;1.53;;
20181;SDS011;10250;50.756;6.172;2023-02-04T04:45:55;3.73;;;0.83;;
20181;SDS011;10250;50.756;6.172;2023-02-04T04:47:56;4.60;;;1.03;;
20181;SDS011;10250;50.756;6.172;2023-02-04T04:49:57;5.77;;;0.80;;
20181;SDS011;10250;50.756;6.172;2023-02-04T04:51:57;6.43;;;1.37;;
20181;SDS011;10250;50.756;6.172;2023-02-04T04:53:58;9.10;;;1.20;;
20181;SDS011;10250;50.756;6.172;2023-02-04T04:55:59;5.00;;;1.00;;
20181;SDS011;10250;50.756;6.172;2023-02-04T04:58:00;7.10;;;1.57;;
20181;SDS011;10250;50.756;6.172;2023-02-04T05:00:02;1.50;;;0.50;;
20181;SDS011;10250;50.756;6.172;2023-02-04T05:02:03;3.17;;;0.90;;
20181;SDS011;10250;50.756;6.172;2023-02-04T05:04:04;3.43;;;1.07;;
20181;SDS011;10250;50.756;6.172;2023-02-04T05:06:05;5.00;;;1.30;;
20181;SDS011;10250;50.756;6.172;2023-02-04T05:08:08;3.40;;;0.63;;
20181;SDS011;10250;50.756;6.172;2023-02-04T05:10:12;9.10;;;1.30;;
20181;SDS011;10250;50.756;6.172;2023-02-04T05:12:12;6.57;;;1.20;;
20181;SDS011;10250;50.756;6.172;2023-02-04T05:14:13;5.43;;;0.97;;
20181;SDS011;10250;50.756;6.172;2023-02-04T05:16:14;5.73;;;0.90;;
20181;SDS011;10250;50.756;6.172;2023-02-04T05:18:17;4.73;;;0.93;;
20181;SDS011;10250;50.756;6.172;2023-02-04T05:20:18;4.47;;;0.97;;
20181;SDS011;10250;50.756;6.172;2023-02-04T05:22:19;1.23;;;0.63;;
20181;SDS011;10250;50.756;6.172;2023-02-04T05:24:19;4.60;;;0.80;;
20181;SDS011;10250;50.756;6.172;2023-02-04T05:26:20;6.67;;;1.03;;
20181;SDS011;10250;50.756;6.172;2023-02-04T05:28:21;6.97;;;0.83;;
20181;SDS011;10250;50.756;6.172;2023-02-04T05:30:22;5.77;;;1.57;;
20181;SDS011;10250;50.756;6.172;2023-02-04T05:32:23;8.33;;;1.30;;
20181;SDS011;10250;50.756;6.172;2023-02-04T05:34:24;3.40;;;0.90;;
20181;SDS011;10250;50.756;6.172;2023-02-04T05:36:25;6.50;;;1.30;;
20181;SDS011;10250;50.756;6.172;2023-02-04T05:38:26;6.80;;;1.07;;
20181;SDS011;10250;50.756;6.172;2023-02-04T05:40:27;3.40;;;0.77;;
20181;SDS011;10250;50.756;6.172;2023-02-04T05:42:28;2.97;;;0.90;;
20181;SDS011;10250;50.756;6.172;2023-02-04T05:44:29;5.93;;;1.10;;
20181;SDS011;10250;50.756;6.172;2023-02-04T05:46:30;4.70;;;1.17;;
20181;SDS011;10250;50.756;6.172;2023-02-04T05:48:31;2.83;;;0.93;;
20181;SDS011;10250;50.756;6.172;2023-02-04T05:50:32;5.13;;;1.10;;
20181;SDS011;10250;50.756;6.172;2023-02-04T05:52:33;6.67;;;1.33;;
20181;SDS011;10250;50.756;6.172;2023-02-04T05:54:34;4.50;;;1.10;;
20181;SDS011;10250;50.756;6.172;2023-02-04T05:56:35;5.77;;;1.20;;
20181;SDS011;10250;50.756;6.172;2023-02-04T05:58:36;7.33;;;1.47;;
20181;SDS011;10250;50.756;6.172;2023-02-04T06:00:37;2.13;;;0.87;;
20181;SDS011;10250;50.756;6.172;2023-02-04T06:02:38;5.10;;;1.00;;
20181;SDS011;10250;50.756;6.172;2023-02-04T06:04:39;4.30;;;1.17;;
20181;SDS011;10250;50.756;6.172;2023-02-04T06:06:40;5.10;;;2.03;;
20181;SDS011;10250;50.756;6.172;2023-02-04T06:08:41;5.80;;;1.30;;
20181;SDS011;10250;50.756;6.172;2023-02-04T06:10:41;7.30;;;1.30;;
20181;SDS011;10250;50.756;6.172;2023-02-04T06:12:42;5.50;;;1.10;;
20181;SDS011;10250;50.756;6.172;2023-02-04T06:14:43;5.60;;;1.10;;
20181;SDS011;10250;50.756;6.172;2023-02-04T06:16:44;6.47;;;1.47;;
20181;SDS011;10250;50.756;6.172;2023-02-04T06:18:45;7.40;;;1.50;;
20181;SDS011;10250;50.756;6.172;2023-02-04T06:20:46;9.07;;;1.77;;
20181;SDS011;10250;50.756;6.172;2023-02-04T06:22:47;5.80;;;1.17;;
20181;SDS011;10250;50.756;6.172;2023-02-04T06:24:50;8.63;;;1.40;;
20181;SDS011;10250;50.756;6.172;2023-02-04T06:26:51;8.87;;;1.70;;
20181;SDS011;10250;50.756;6.172;2023-02-04T06:28:52;4.70;;;1.17;;
20181;SDS011;10250;50.756;6.172;2023-02-04T06:30:53;7.60;;;1.70;;
20181;SDS011;10250;50.756;6.172;2023-02-04T06:32:54;3.43;;;1.13;;
20181;SDS011;10250;50.756;6.172;2023-02-04T06:34:55;8.03;;;1.80;;
20181;SDS011;10250;50.756;6.172;2023-02-04T06:36:55;6.67;;;1.40;;
20181;SDS011;10250;50.756;6.172;2023-02-04T06:38:56;6.97;;;1.57;;
20181;SDS011;10250;50.756;6.172;2023-02-04T06:40:57;7.33;;;1.60;;
20181;SDS011;10250;50.756;6.172;2023-02-04T06:42:57;9.57;;;1.87;;
20181;SDS011;10250;50.756;6.172;2023-02-04T06:44:58;5.83;;;1.43;;
20181;SDS011;10250;50.756;6.172;2023-02-04T06:46:59;10.90;;;1.73;;
20181;SDS011;10250;50.756;6.172;2023-02-04T06:49:00;10.93;;;2.27;;
20181;SDS011;10250;50.756;6.172;2023-02-04T06:51:00;8.13;;;2.10;;
20181;SDS011;10250;50.756;6.172;2023-02-04T06:53:01;7.77;;;1.50;;
20181;SDS011;10250;50.756;6.172;2023-02-04T06:55:01;5.93;;;1.43;;
20181;SDS011;10250;50.756;6.172;2023-02-04T06:57:03;12.57;;;2.10;;
20181;SDS011;10250;50.756;6.172;2023-02-04T06:59:07;9.33;;;1.77;;
20181;SDS011;10250;50.756;6.172;2023-02-04T07:01:08;6.27;;;1.83;;
20181;SDS011;10250;50.756;6.172;2023-02-04T07:03:08;9.30;;;2.10;;
20181;SDS011;10250;50.756;6.172;2023-02-04T07:05:09;11.73;;;2.03;;
20181;SDS011;10250;50.756;6.172;2023-02-04T07:07:10;10.37;;;2.10;;
20181;SDS011;10250;50.756;6.172;2023-02-04T07:09:11;8.23;;;2.30;;
20181;SDS011;10250;50.756;6.172;2023-02-04T07:11:12;10.77;;;2.77;;
20181;SDS011;10250;50.756;6.172;2023-02-04T07:13:13;9.00;;;2.00;;
20181;SDS011;10250;50.756;6.172;2023-02-04T07:15:14;10.27;;;2.10;;
20181;SDS011;10250;50.756;6.172;2023-02-04T07:17:15;8.90;;;2.20;;
20181;SDS011;10250;50.756;6.172;2023-02-04T07:19:16;10.40;;;2.27;;
20181;SDS011;10250;50.756;6.172;2023-02-04T07:21:17;13.87;;;3.03;;
20181;SDS011;10250;50.756;6.172;2023-02-04T07:23:17;10.37;;;2.13;;
20181;SDS011;10250;50.756;6.172;2023-02-04T07:25:18;12.07;;;3.07;;
20181;SDS011;10250;50.756;6.172;2023-02-04T07:27:19;8.67;;;2.27;;
20181;SDS011;10250;50.756;6.172;2023-02-04T07:29:20;10.73;;;2.83;;
20181;SDS011;10250;50.756;6.172;2023-02-04T07:31:21;13.73;;;3.33;;
20181;SDS011;10250;50.756;6.172;2023-02-04T07:33:22;12.93;;;3.03;;
20181;SDS011;10250;50.756;6.172;2023-02-04T07:35:23;10.10;;;2.40;;
20181;SDS011;10250;50.756;6.172;2023-02-04T07:37:23;13.17;;;3.53;;
20181;SDS011;10250;50.756;6.172;2023-02-04T07:39:24;13.67;;;2.70;;
20181;SDS011;10250;50.756;6.172;2023-02-04T07:41:25;12.13;;;2.70;;
20181;SDS011;10250;50.756;6.172;2023-02-04T07:43:26;16.47;;;2.67;;
20181;SDS011;10250;50.756;6.172;2023-02-04T07:45:27;16.07;;;3.17;;
20181;SDS011;10250;50.756;6.172;2023-02-04T07:47:27;12.97;;;2.97;;
20181;SDS011;10250;50.756;6.172;2023-02-04T07:49:28;14.93;;;3.50;;
20181;SDS011;10250;50.756;6.172;2023-02-04T07:51:29;21.33;;;3.30;;
20181;SDS011;10250;50.756;6.172;2023-02-04T07:53:29;13.83;;;2.53;;
20181;SDS011;10250;50.756;6.172;2023-02-04T07:55:30;20.43;;;4.20;;
20181;SDS011;10250;50.756;6.172;2023-02-04T07:57:31;12.10;;;3.00;;
20181;SDS011;10250;50.756;6.172;2023-02-04T07:59:32;12.17;;;2.93;;
20181;SDS011;10250;50.756;6.172;2023-02-04T08:01:33;14.83;;;3.20;;
20181;SDS011;10250;50.756;6.172;2023-02-04T08:03:33;15.30;;;3.67;;
20181;SDS011;10250;50.756;6.172;2023-02-04T08:05:34;15.67;;;3.37;;
20181;SDS011;10250;50.756;6.172;2023-02-04T08:07:34;14.00;;;3.37;;
20181;SDS011;10250;50.756;6.172;2023-02-04T08:09:35;13.33;;;2.57;;
20181;SDS011;10250;50.756;6.172;2023-02-04T08:11:35;16.50;;;2.80;;
20181;SDS011;10250;50.756;6.172;2023-02-04T08:13:36;13.57;;;3.03;;
20181;SDS011;10250;50.756;6.172;2023-02-04T08:15:37;16.27;;;3.80;;
20181;SDS011;10250;50.756;6.172;2023-02-04T08:17:38;15.47;;;4.00;;
20181;SDS011;10250;50.756;6.172;2023-02-04T08:19:38;16.10;;;3.47;;
20181;SDS011;10250;50.756;6.172;2023-02-04T08:21:39;16.57;;;3.43;;
20181;SDS011;10250;50.756;6.172;2023-02-04T08:23:40;16.77;;;3.93;;
20181;SDS011;10250;50.756;6.172;2023-02-04T08:25:40;12.57;;;3.77;;
20181;SDS011;10250;50.756;6.172;2023-02-04T08:27:41;13.13;;;3.27;;
20181;SDS011;10250;50.756;6.172;2023-02-04T08:29:42;13.53;;;3.27;;
20181;SDS011;10250;50.756;6.172;2023-02-04T08:31:42;13.23;;;3.40;;
20181;SDS011;10250;50.756;6.172;2023-02-04T08:33:44;17.97;;;3.90;;
20181;SDS011;10250;50.756;6.172;2023-02-04T08:35:44;15.10;;;3.37;;
20181;SDS011;10250;50.756;6.172;2023-02-04T08:37:45;15.93;;;4.03;;
20181;SDS011;10250;50.756;6.172;2023-02-04T08:39:46;13.40;;;3.50;;
20181;SDS011;10250;50.756;6.172;2023-02-04T08:41:48;12.93;;;3.20;;
20181;SDS011;10250;50.756;6.172;2023-02-04T08:43:50;21.20;;;4.00;;
20181;SDS011;10250;50.756;6.172;2023-02-04T08:45:51;15.13;;;3.40;;
20181;SDS011;10250;50.756;6.172;2023-02-04T08:47:52;14.70;;;3.10;;
20181;SDS011;10250;50.756;6.172;2023-02-04T08:49:53;15.93;;;3.87;;
20181;SDS011;10250;50.756;6.172;2023-02-04T08:51:53;16.57;;;3.67;;
20181;SDS011;10250;50.756;6.172;2023-02-04T08:53:54;16.90;;;3.73;;
20181;SDS011;10250;50.756;6.172;2023-02-04T08:55:55;12.33;;;3.17;;
20181;SDS011;10250;50.756;6.172;2023-02-04T08:57:55;17.37;;;4.33;;
20181;SDS011;10250;50.756;6.172;2023-02-04T08:59:57;15.27;;;3.50;;
20181;SDS011;10250;50.756;6.172;2023-02-04T09:01:58;18.17;;;4.63;;
20181;SDS011;10250;50.756;6.172;2023-02-04T09:03:59;15.60;;;4.37;;
20181;SDS011;10250;50.756;6.172;2023-02-04T09:06:00;12.87;;;2.97;;
20181;SDS011;10250;50.756;6.172;2023-02-04T09:08:01;11.37;;;2.90;;
20181;SDS011;10250;50.756;6.172;2023-02-04T09:10:02;13.87;;;2.97;;
20181;SDS011;10250;50.756;6.172;2023-02-04T09:12:02;13.40;;;3.10;;
20181;SDS011;10250;50.756;6.172;2023-02-04T09:14:03;14.30;;;3.37;;
20181;SDS011;10250;50.756;6.172;2023-02-04T09:16:04;18.47;;;4.07;;
20181;SDS011;10250;50.756;6.172;2023-02-04T09:18:05;16.77;;;3.50;;
20181;SDS011;10250;50.756;6.172;2023-02-04T09:20:17;12.37;;;3.37;;
20181;SDS011;10250;50.756;6.172;2023-02-04T09:22:18;18.83;;;3.50;;
20181;SDS011;10250;50.756;6.172;2023-02-04T09:24:19;19.03;;;4.20;;
20181;SDS011;10250;50.756;6.172;2023-02-04T09:26:22;18.63;;;3.57;;
20181;SDS011;10250;50.756;6.172;2023-02-04T09:28:23;18.50;;;4.03;;
20181;SDS011;10250;50.756;6.172;2023-02-04T09:30:23;15.03;;;3.80;;
20181;SDS011;10250;50.756;6.172;2023-02-04T09:32:24;13.60;;;3.30;;
20181;SDS011;10250;50.756;6.172;2023-02-04T09:34:25;15.07;;;3.50;;
20181;SDS011;10250;50.756;6.172;2023-02-04T09:36:25;11.10;;;2.90;;
20181;SDS011;10250;50.756;6.172;2023-02-04T09:38:29;14.23;;;3.20;;
20181;SDS011;10250;50.756;6.172;2023-02-04T09:40:32;13.27;;;3.60;;
20181;SDS011;10250;50.756;6.172;2023-02-04T09:42:34;11.70;;;3.07;;
20181;SDS011;10250;50.756;6.172;2023-02-04T09:44:34;16.57;;;3.90;;
20181;SDS011;10250;50.756;6.172;2023-02-04T09:46:37;17.17;;;4.23;;
20181;SDS011;10250;50.756;6.172;2023-02-04T09:48:38;15.23;;;3.67;;
20181;SDS011;10250;50.756;6.172;2023-02-04T09:50:38;17.93;;;4.00;;
20181;SDS011;10250;50.756;6.172;2023-02-04T09:52:39;15.47;;;3.30;;
20181;SDS011;10250;50.756;6.172;2023-02-04T09:54:40;13.77;;;3.70;;
20181;SDS011;10250;50.756;6.172;2023-02-04T09:56:41;13.13;;;3.47;;
20181;SDS011;10250;50.756;6.172;2023-02-04T09:58:42;17.07;;;3.50;;
20181;SDS011;10250;50.756;6.172;2023-02-04T10:00:43;13.63;;;3.50;;
20181;SDS011;10250;50.756;6.172;2023-02-04T10:02:51;13.83;;;3.77;;
20181;SDS011;10250;50.756;6.172;2023-02-04T10:04:54;16.10;;;3.83;;
20181;SDS011;10250;50.756;6.172;2023-02-04T10:06:56;11.17;;;2.93;;
20181;SDS011;10250;50.756;6.172;2023-02-04T10:09:00;15.00;;;3.73;;
20181;SDS011;10250;50.756;6.172;2023-02-04T10:11:00;19.73;;;4.07;;
20181;SDS011;10250;50.756;6.172;2023-02-04T10:13:01;17.37;;;3.43;;
20181;SDS011;10250;50.756;6.172;2023-02-04T10:15:02;18.30;;;4.37;;
20181;SDS011;10250;50.756;6.172;2023-02-04T10:17:07;12.97;;;3.67;;
20181;SDS011;10250;50.756;6.172;2023-02-04T10:19:13;16.17;;;3.17;;
20181;SDS011;10250;50.756;6.172;2023-02-04T10:23:15;11.73;;;3.13;;
20181;SDS011;10250;50.756;6.172;2023-02-04T10:25:18;15.73;;;2.83;;
20181;SDS011;10250;50.756;6.172;2023-02-04T10:27:20;15.20;;;3.43;;
20181;SDS011;10250;50.756;6.172;2023-02-04T10:29:21;21.57;;;4.00;;
20181;SDS011;10250;50.756;6.172;2023-02-04T10:31:28;14.70;;;3.33;;
20181;SDS011;10250;50.756;6.172;2023-02-04T10:33:29;18.97;;;3.27;;
20181;SDS011;10250;50.756;6.172;2023-02-04T10:35:32;14.20;;;2.67;;
20181;SDS011;10250;50.756;6.172;2023-02-04T10:37:43;9.67;;;2.50;;
20181;SDS011;10250;50.756;6.172;2023-02-04T10:39:44;12.07;;;3.27;;
20181;SDS011;10250;50.756;6.172;2023-02-04T10:41:49;13.27;;;2.87;;
20181;SDS011;10250;50.756;6.172;2023-02-04T10:44:07;14.67;;;2.77;;
20181;SDS011;10250;50.756;6.172;2023-02-04T10:46:09;12.13;;;3.00;;
20181;SDS011;10250;50.756;6.172;2023-02-04T10:48:17;14.33;;;3.33;;
20181;SDS011;10250;50.756;6.172;2023-02-04T10:50:19;15.23;;;2.80;;
20181;SDS011;10250;50.756;6.172;2023-02-04T10:52:21;14.07;;;3.00;;
20181;SDS011;10250;50.756;6.172;2023-02-04T10:54:33;13.77;;;3.20;;
20181;SDS011;10250;50.756;6.172;2023-02-04T10:56:35;17.07;;;3.70;;
20181;SDS011;10250;50.756;6.172;2023-02-04T10:58:36;15.37;;;3.37;;
20181;SDS011;10250;50.756;6.172;2023-02-04T11:00:37;12.70;;;3.40;;
20181;SDS011;10250;50.756;6.172;2023-02-04T11:04:42;12.70;;;2.80;;
20181;SDS011;10250;50.756;6.172;2023-02-04T11:06:43;11.47;;;3.30;;
20181;SDS011;10250;50.756;6.172;2023-02-04T11:08:44;11.87;;;3.07;;
20181;SDS011;10250;50.756;6.172;2023-02-04T11:10:45;16.13;;;3.13;;
20181;SDS011;10250;50.756;6.172;2023-02-04T11:12:57;17.73;;;3.10;;
20181;SDS011;10250;50.756;6.172;2023-02-04T11:14:59;9.50;;;2.53;;
20181;SDS011;10250;50.756;6.172;2023-02-04T11:17:00;16.13;;;3.07;;
20181;SDS011;10250;50.756;6.172;2023-02-04T11:19:03;14.27;;;3.20;;
20181;SDS011;10250;50.756;6.172;2023-02-04T11:21:04;14.17;;;3.10;;
20181;SDS011;10250;50.756;6.172;2023-02-04T11:23:31;11.23;;;2.87;;
20181;SDS011;10250;50.756;6.172;2023-02-04T11:25:33;12.40;;;2.20;;
20181;SDS011;10250;50.756;6.172;2023-02-04T11:27:38;9.33;;;2.60;;
20181;SDS011;10250;50.756;6.172;2023-02-04T11:29:39;14.20;;;3.07;;
20181;SDS011;10250;50.756;6.172;2023-02-04T11:33:42;11.20;;;2.20;;
20181;SDS011;10250;50.756;6.172;2023-02-04T11:35:50;11.23;;;2.10;;
20181;SDS011;10250;50.756;6.172;2023-02-04T11:37:57;11.30;;;2.70;;
20181;SDS011;10250;50.756;6.172;2023-02-04T11:39:59;8.83;;;2.13;;
20181;SDS011;10250;50.756;6.172;2023-02-04T11:42:00;10.00;;;2.47;;
20181;SDS011;10250;50.756;6.172;2023-02-04T11:44:01;11.90;;;2.63;;
20181;SDS011;10250;50.756;6.172;2023-02-04T11:46:12;14.77;;;3.00;;
20181;SDS011;10250;50.756;6.172;2023-02-04T11:48:18;11.70;;;2.53;;
20181;SDS011;10250;50.756;6.172;2023-02-04T11:50:37;13.97;;;2.83;;
20181;SDS011;10250;50.756;6.172;2023-02-04T11:52:38;11.20;;;2.70;;
20181;SDS011;10250;50.756;6.172;2023-02-04T11:54:39;10.50;;;2.17;;
20181;SDS011;10250;50.756;6.172;2023-02-04T11:56:40;14.30;;;2.87;;
20181;SDS011;10250;50.756;6.172;2023-02-04T11:58:41;17.27;;;3.73;;
20181;SDS011;10250;50.756;6.172;2023-02-04T12:00:42;10.10;;;2.30;;
20181;SDS011;10250;50.756;6.172;2023-02-04T12:02:48;14.90;;;3.17;;
20181;SDS011;10250;50.756;6.172;2023-02-04T12:04:56;14.93;;;2.57;;
20181;SDS011;10250;50.756;6.172;2023-02-04T12:07:01;12.03;;;2.70;;
20181;SDS011;10250;50.756;6.172;2023-02-04T12:11:26;16.27;;;2.60;;
20181;SDS011;10250;50.756;6.172;2023-02-04T12:13:29;8.77;;;2.20;;
20181;SDS011;10250;50.756;6.172;2023-02-04T12:15:32;7.93;;;2.13;;
20181;SDS011;10250;50.756;6.172;2023-02-04T12:17:34;11.47;;;2.00;;
20181;SDS011;10250;50.756;6.172;2023-02-04T12:19:35;9.03;;;2.50;;
20181;SDS011;10250;50.756;6.172;2023-02-04T12:21:36;10.20;;;2.20;;
20181;SDS011;10250;50.756;6.172;2023-02-04T12:23:37;11.10;;;2.00;;